Time,TemperatureF,DewpointF,PressureIn,WindDirection,WindDirectionDegrees,WindSpeedMPH,WindSpeedGustMPH,Humidity,HourlyPrecipIn,Conditions,Clouds,dailyrainin,SoftwareType,DateUTC
2013-05-14 00:03:00,37.0,27.0,-100.00,North,-999,-999.0,-999.0,67,-99.99,,,-99.99,,2013-05-14 04:03:00,
2013-05-14 00:13:00,37.0,27.0,-100.00,North,-999,-999.0,-999.0,67,-99.99,,,-99.99,,2013-05-14 04:13:00,
2013-05-14 00:23:00,38.0,29.0,-100.00,North,-999,-999.0,-999.0,70,-99.99,,,-99.99,,2013-05-14 04:23:00,
2013-05-14 00:32:00,38.0,30.0,-100.00,North,-999,-999.0,-999.0,72,-99.99,,,-99.99,,2013-05-14 04:32:00,
2013-05-14 00:43:00,38.0,30.0,-100.00,North,-999,-999.0,-999.0,72,-99.99,,,-99.99,,2013-05-14 04:43:00,
2013-05-14 00:53:00,37.0,28.0,-100.00,North,-999,-999.0,-999.0,71,-99.99,,,-99.99,,2013-05-14 04:53:00,
2013-05-14 01:02:00,36.0,27.0,-100.00,North,-999,-999.0,-999.0,70,-99.99,,,-99.99,,2013-05-14 05:02:00,
2013-05-14 01:12:00,36.0,27.0,-100.00,North,-999,-999.0,-999.0,70,-99.99,,,-99.99,,2013-05-14 05:12:00,
2013-05-14 01:22:00,34.0,26.0,-100.00,North,-999,-999.0,-999.0,71,-99.99,,,-99.99,,2013-05-14 05:22:00,
2013-05-14 01:32:00,34.0,26.0,-100.00,North,-999,-999.0,-999.0,72,-99.99,,,-99.99,,2013-05-14 05:32:00,
2013-05-14 01:42:00,34.0,26.0,-100.00,North,-999,-999.0,-999.0,72,-99.99,,,-99.99,,2013-05-14 05:42:00,
2013-05-14 01:52:00,33.0,26.0,-100.00,North,-999,-999.0,-999.0,74,-99.99,,,-99.99,,2013-05-14 05:52:00,
2013-05-14 02:01:00,33.0,26.0,-100.00,North,-999,-999.0,-999.0,74,-99.99,,,-99.99,,2013-05-14 06:01:00,
2013-05-14 02:12:00,33.0,26.0,-100.00,North,-999,-999.0,-999.0,74,-99.99,,,-99.99,,2013-05-14 06:12:00,
2013-05-14 02:22:00,32.0,25.0,-100.00,North,-999,-999.0,-999.0,76,-99.99,,,-99.99,,2013-05-14 06:22:00,
2013-05-14 02:32:00,32.0,25.0,-100.00,North,-999,-999.0,-999.0,76,-99.99,,,-99.99,,2013-05-14 06:32:00,
2013-05-14 02:42:00,32.0,25.0,-100.00,North,-999,-999.0,-999.0,76,-99.99,,,-99.99,,2013-05-14 06:42:00,
2013-05-14 02:52:00,32.0,26.0,-100.00,North,-999,-999.0,-999.0,77,-99.99,,,-99.99,,2013-05-14 06:52:00,
2013-05-14 03:02:00,32.0,26.0,-100.00,North,-999,-999.0,-999.0,77,-99.99,,,-99.99,,2013-05-14 07:02:00,
2013-05-14 03:11:00,32.0,26.0,-100.00,North,-999,-999.0,-999.0,77,-99.99,,,-99.99,,2013-05-14 07:11:00,
2013-05-14 03:21:00,32.0,26.0,-100.00,North,-999,-999.0,-999.0,78,-99.99,,,-99.99,,2013-05-14 07:21:00,
2013-05-14 03:32:00,31.0,25.0,-100.00,North,-999,-999.0,-999.0,78,-99.99,,,-99.99,,2013-05-14 07:32:00,
2013-05-14 03:42:00,31.0,25.0,-100.00,North,-999,-999.0,-999.0,79,-99.99,,,-99.99,,2013-05-14 07:42:00,
2013-05-14 03:52:00,31.0,25.0,-100.00,North,-999,-999.0,-999.0,79,-99.99,,,-99.99,,2013-05-14 07:52:00,
2013-05-14 04:02:00,31.0,25.0,-100.00,North,-999,-999.0,-999.0,79,-99.99,,,-99.99,,2013-05-14 08:02:00,
2013-05-14 04:11:00,31.0,25.0,-100.00,North,-999,-999.0,-999.0,79,-99.99,,,-99.99,,2013-05-14 08:11:00,
2013-05-14 04:21:00,31.0,25.0,-100.00,North,-999,-999.0,-999.0,79,-99.99,,,-99.99,,2013-05-14 08:21:00,
2013-05-14 04:32:00,31.0,25.0,-100.00,North,-999,-999.0,-999.0,79,-99.99,,,-99.99,,2013-05-14 08:32:00,
2013-05-14 04:42:00,31.0,25.0,-100.00,North,-999,-999.0,-999.0,78,-99.99,,,-99.99,,2013-05-14 08:42:00,
2013-05-14 04:52:00,31.0,25.0,-100.00,North,-999,-999.0,-999.0,78,-99.99,,,-99.99,,2013-05-14 08:52:00,
2013-05-14 05:02:00,31.0,25.0,-100.00,North,-999,-999.0,-999.0,79,-99.99,,,-99.99,,2013-05-14 09:02:00,
2013-05-14 05:10:00,33.0,27.0,-100.00,North,-999,-999.0,-999.0,77,-99.99,,,-99.99,,2013-05-14 09:10:00,
2013-05-14 05:11:00,31.0,25.0,-100.00,North,-999,-999.0,-999.0,79,-99.99,,,-99.99,,2013-05-14 09:11:00,
2013-05-14 05:22:00,32.0,26.0,-100.00,North,-999,-999.0,-999.0,78,-99.99,,,-99.99,,2013-05-14 09:22:00,
2013-05-14 05:32:00,33.0,27.0,-100.00,North,-999,-999.0,-999.0,77,-99.99,,,-99.99,,2013-05-14 09:32:00,
2013-05-14 05:44:00,33.0,27.0,-100.00,North,-999,-999.0,-999.0,77,-99.99,,,-99.99,,2013-05-14 09:44:00,
2013-05-14 05:54:00,33.0,27.0,-100.00,North,-999,-999.0,-999.0,77,-99.99,,,-99.99,,2013-05-14 09:54:00,
2013-05-14 06:05:00,33.0,27.0,-100.00,North,-999,-999.0,-999.0,77,-99.99,,,-99.99,,2013-05-14 10:05:00,
2013-05-14 06:25:00,36.0,28.0,-100.00,North,-999,-999.0,-999.0,73,-99.99,,,-99.99,,2013-05-14 10:25:00,
2013-05-14 06:33:00,36.0,28.0,-100.00,North,-999,-999.0,-999.0,72,-99.99,,,-99.99,,2013-05-14 10:33:00,
2013-05-14 06:42:00,36.0,28.0,-100.00,North,-999,-999.0,-999.0,72,-99.99,,,-99.99,,2013-05-14 10:42:00,
2013-05-14 06:53:00,38.0,29.0,-100.00,North,-999,-999.0,-999.0,70,-99.99,,,-99.99,,2013-05-14 10:53:00,
2013-05-14 07:03:00,39.0,30.0,-100.00,North,-999,-999.0,-999.0,69,-99.99,,,-99.99,,2013-05-14 11:03:00,
2013-05-14 07:11:00,39.0,30.0,-100.00,North,-999,-999.0,-999.0,69,-99.99,,,-99.99,,2013-05-14 11:11:00,
2013-05-14 07:22:00,39.0,29.0,-100.00,North,-999,-999.0,-999.0,68,-99.99,,,-99.99,,2013-05-14 11:22:00,
2013-05-14 07:32:00,39.0,29.0,-100.00,North,-999,-999.0,-999.0,68,-99.99,,,-99.99,,2013-05-14 11:32:00,
2013-05-14 07:43:00,39.0,29.0,-100.00,North,-999,-999.0,-999.0,68,-99.99,,,-99.99,,2013-05-14 11:43:00,
2013-05-14 07:52:00,42.0,30.0,-100.00,North,-999,-999.0,-999.0,63,-99.99,,,-99.99,,2013-05-14 11:52:00,
2013-05-14 08:03:00,42.0,30.0,-100.00,North,-999,-999.0,-999.0,63,-99.99,,,-99.99,,2013-05-14 12:03:00,
2013-05-14 08:12:00,42.0,30.0,-100.00,North,-999,-999.0,-999.0,63,-99.99,,,-99.99,,2013-05-14 12:12:00,
2013-05-14 08:21:00,42.0,29.0,-100.00,North,-999,-999.0,-999.0,60,-99.99,,,-99.99,,2013-05-14 12:21:00,
2013-05-14 08:32:00,43.0,29.0,-100.00,North,-999,-999.0,-999.0,58,-99.99,,,-99.99,,2013-05-14 12:32:00,
2013-05-14 08:42:00,43.0,29.0,-100.00,North,-999,-999.0,-999.0,58,-99.99,,,-99.99,,2013-05-14 12:42:00,
2013-05-14 08:52:00,44.0,30.0,-100.00,North,-999,-999.0,-999.0,57,-99.99,,,-99.99,,2013-05-14 12:52:00,
2013-05-14 09:01:00,47.0,32.0,-100.00,North,-999,-999.0,-999.0,55,-99.99,,,-99.99,,2013-05-14 13:01:00,
2013-05-14 09:11:00,47.0,32.0,-100.00,North,-999,-999.0,-999.0,55,-99.99,,,-99.99,,2013-05-14 13:11:00,
2013-05-14 09:22:00,50.0,34.0,-100.00,North,-999,-999.0,-999.0,53,-99.99,,,-99.99,,2013-05-14 13:22:00,
2013-05-14 09:32:00,50.0,34.0,-100.00,North,-999,-999.0,-999.0,53,-99.99,,,-99.99,,2013-05-14 13:32:00,
2013-05-14 09:42:00,50.0,34.0,-100.00,North,-999,-999.0,-999.0,53,-99.99,,,-99.99,,2013-05-14 13:42:00,
2013-05-14 09:52:00,50.0,34.0,-100.00,North,-999,-999.0,-999.0,53,-99.99,,,-99.99,,2013-05-14 13:52:00,
2013-05-14 10:01:00,51.0,33.0,-100.00,North,-999,-999.0,-999.0,49,-99.99,,,-99.99,,2013-05-14 14:01:00,
2013-05-14 10:11:00,51.0,33.0,-100.00,North,-999,-999.0,-999.0,49,-99.99,,,-99.99,,2013-05-14 14:11:00,
2013-05-14 10:22:00,52.0,32.0,-100.00,North,-999,-999.0,-999.0,46,-99.99,,,-99.99,,2013-05-14 14:22:00,
2013-05-14 10:32:00,52.0,32.0,-100.00,North,-999,-999.0,-999.0,46,-99.99,,,-99.99,,2013-05-14 14:32:00,
2013-05-14 10:42:00,52.0,32.0,-100.00,North,-999,-999.0,-999.0,46,-99.99,,,-99.99,,2013-05-14 14:42:00,
2013-05-14 10:53:00,52.0,32.0,-100.00,North,-999,-999.0,-999.0,46,-99.99,,,-99.99,,2013-05-14 14:53:00,
2013-05-14 11:01:00,52.0,29.0,-100.00,North,-999,-999.0,-999.0,41,-99.99,,,-99.99,,2013-05-14 15:01:00,
2013-05-14 11:12:00,52.0,29.0,-100.00,North,-999,-999.0,-999.0,41,-99.99,,,-99.99,,2013-05-14 15:12:00,
2013-05-14 11:22:00,51.0,27.0,-100.00,North,-999,-999.0,-999.0,39,-99.99,,,-99.99,,2013-05-14 15:22:00,
2013-05-14 11:33:00,51.0,27.0,-100.00,North,-999,-999.0,-999.0,39,-99.99,,,-99.99,,2013-05-14 15:33:00,
2013-05-14 11:43:00,50.0,28.0,-100.00,North,-999,-999.0,-999.0,42,-99.99,,,-99.99,,2013-05-14 15:43:00,
2013-05-14 11:53:00,50.0,28.0,-100.00,North,-999,-999.0,-999.0,42,-99.99,,,-99.99,,2013-05-14 15:53:00,
2013-05-14 12:02:00,49.0,27.0,-100.00,North,-999,-999.0,-999.0,43,-99.99,,,-99.99,,2013-05-14 16:02:00,
2013-05-14 12:12:00,49.0,27.0,-100.00,North,-999,-999.0,-999.0,43,-99.99,,,-99.99,,2013-05-14 16:12:00,
2013-05-14 12:23:00,49.0,27.0,-100.00,North,-999,-999.0,-999.0,43,-99.99,,,-99.99,,2013-05-14 16:23:00,
2013-05-14 12:33:00,52.0,30.0,-100.00,North,-999,-999.0,-999.0,43,-99.99,,,-99.99,,2013-05-14 16:33:00,
2013-05-14 12:44:00,52.0,30.0,-100.00,North,-999,-999.0,-999.0,43,-99.99,,,-99.99,,2013-05-14 16:44:00,
2013-05-14 12:54:00,53.0,30.0,-100.00,North,-999,-999.0,-999.0,41,-99.99,,,-99.99,,2013-05-14 16:54:00,
2013-05-14 13:03:00,53.0,30.0,-100.00,North,-999,-999.0,-999.0,41,-99.99,,,-99.99,,2013-05-14 17:03:00,
2013-05-14 13:13:00,53.0,30.0,-100.00,North,-999,-999.0,-999.0,41,-99.99,,,-99.99,,2013-05-14 17:13:00,
2013-05-14 13:24:00,58.0,34.0,-100.00,North,-999,-999.0,-999.0,40,-99.99,,,-99.99,,2013-05-14 17:24:00,
2013-05-14 13:33:00,54.0,29.0,-100.00,North,-999,-999.0,-999.0,38,-99.99,,,-99.99,,2013-05-14 17:33:00,
2013-05-14 13:43:00,54.0,29.0,-100.00,North,-999,-999.0,-999.0,38,-99.99,,,-99.99,,2013-05-14 17:43:00,
2013-05-14 13:52:00,54.0,29.0,-100.00,North,-999,-999.0,-999.0,38,-99.99,,,-99.99,,2013-05-14 17:52:00,
2013-05-14 14:22:00,56.0,31.0,-100.00,North,-999,-999.0,-999.0,38,-99.99,,,-99.99,,2013-05-14 18:22:00,
2013-05-14 14:32:00,56.0,31.0,-100.00,North,-999,-999.0,-999.0,38,-99.99,,,-99.99,,2013-05-14 18:32:00,
2013-05-14 14:42:00,56.0,31.0,-100.00,North,-999,-999.0,-999.0,38,-99.99,,,-99.99,,2013-05-14 18:42:00,
2013-05-14 14:52:00,59.0,35.0,-100.00,North,-999,-999.0,-999.0,40,-99.99,,,-99.99,,2013-05-14 18:52:00,
2013-05-14 15:01:00,61.0,35.0,-100.00,North,-999,-999.0,-999.0,37,-99.99,,,-99.99,,2013-05-14 19:01:00,
2013-05-14 15:22:00,54.0,30.0,-100.00,North,-999,-999.0,-999.0,39,-99.99,,,-99.99,,2013-05-14 19:22:00,
2013-05-14 15:32:00,57.0,32.0,-100.00,North,-999,-999.0,-999.0,39,-99.99,,,-99.99,,2013-05-14 19:32:00,
2013-05-14 15:42:00,57.0,32.0,-100.00,North,-999,-999.0,-999.0,39,-99.99,,,-99.99,,2013-05-14 19:42:00,
2013-05-14 15:53:00,51.0,27.0,-100.00,North,-999,-999.0,-999.0,39,-99.99,,,-99.99,,2013-05-14 19:53:00,
2013-05-14 16:02:00,60.0,36.0,-100.00,North,-999,-999.0,-999.0,41,-99.99,,,-99.99,,2013-05-14 20:02:00,
2013-05-14 16:23:00,57.0,31.0,-100.00,North,-999,-999.0,-999.0,37,-99.99,,,-99.99,,2013-05-14 20:23:00,
2013-05-14 16:33:00,57.0,31.0,-100.00,North,-999,-999.0,-999.0,37,-99.99,,,-99.99,,2013-05-14 20:33:00,
2013-05-14 16:40:00,53.0,29.0,-100.00,North,-999,-999.0,-999.0,39,-99.99,,,-99.99,,2013-05-14 20:40:00,
2013-05-14 16:44:00,57.0,31.0,-100.00,North,-999,-999.0,-999.0,37,-99.99,,,-99.99,,2013-05-14 20:44:00,
2013-05-14 16:52:00,54.0,30.0,-100.00,North,-999,-999.0,-999.0,39,-99.99,,,-99.99,,2013-05-14 20:52:00,
2013-05-14 17:03:00,53.0,29.0,-100.00,North,-999,-999.0,-999.0,39,-99.99,,,-99.99,,2013-05-14 21:03:00,
2013-05-14 17:12:00,53.0,29.0,-100.00,North,-999,-999.0,-999.0,39,-99.99,,,-99.99,,2013-05-14 21:12:00,
2013-05-14 17:23:00,53.0,29.0,-100.00,North,-999,-999.0,-999.0,39,-99.99,,,-99.99,,2013-05-14 21:23:00,
2013-05-14 17:33:00,53.0,29.0,-100.00,North,-999,-999.0,-999.0,39,-99.99,,,-99.99,,2013-05-14 21:33:00,
2013-05-14 17:53:00,54.0,30.0,-100.00,North,-999,-999.0,-999.0,40,-99.99,,,-99.99,,2013-05-14 21:53:00,
2013-05-14 18:03:00,52.0,29.0,-100.00,North,-999,-999.0,-999.0,41,-99.99,,,-99.99,,2013-05-14 22:03:00,
2013-05-14 18:13:00,52.0,29.0,-100.00,North,-999,-999.0,-999.0,41,-99.99,,,-99.99,,2013-05-14 22:13:00,
2013-05-14 18:24:00,53.0,31.0,-100.00,North,-999,-999.0,-999.0,42,-99.99,,,-99.99,,2013-05-14 22:24:00,
2013-05-14 18:34:00,52.0,29.0,-100.00,North,-999,-999.0,-999.0,41,-99.99,,,-99.99,,2013-05-14 22:34:00,
2013-05-14 18:45:00,52.0,29.0,-100.00,North,-999,-999.0,-999.0,41,-99.99,,,-99.99,,2013-05-14 22:45:00,
2013-05-14 18:55:00,54.0,30.0,-100.00,North,-999,-999.0,-999.0,40,-99.99,,,-99.99,,2013-05-14 22:55:00,
2013-05-14 19:03:00,52.0,30.0,-100.00,North,-999,-999.0,-999.0,43,-99.99,,,-99.99,,2013-05-14 23:03:00,
2013-05-14 19:12:00,52.0,30.0,-100.00,North,-999,-999.0,-999.0,43,-99.99,,,-99.99,,2013-05-14 23:12:00,
2013-05-14 19:22:00,49.0,27.0,-100.00,North,-999,-999.0,-999.0,42,-99.99,,,-99.99,,2013-05-14 23:22:00,
2013-05-14 19:32:00,49.0,27.0,-100.00,North,-999,-999.0,-999.0,42,-99.99,,,-99.99,,2013-05-14 23:32:00,
2013-05-14 19:44:00,49.0,27.0,-100.00,North,-999,-999.0,-999.0,42,-99.99,,,-99.99,,2013-05-14 23:44:00,
2013-05-14 19:52:00,46.0,29.0,-100.00,North,-999,-999.0,-999.0,51,-99.99,,,-99.99,,2013-05-14 23:52:00,
2013-05-14 20:02:00,45.0,29.0,-100.00,North,-999,-999.0,-999.0,53,-99.99,,,-99.99,,2013-05-15 00:02:00,
2013-05-14 20:11:00,45.0,29.0,-100.00,North,-999,-999.0,-999.0,53,-99.99,,,-99.99,,2013-05-15 00:11:00,
2013-05-14 20:21:00,43.0,28.0,-100.00,North,-999,-999.0,-999.0,56,-99.99,,,-99.99,,2013-05-15 00:21:00,
2013-05-14 20:32:00,42.0,27.0,-100.00,North,-999,-999.0,-999.0,56,-99.99,,,-99.99,,2013-05-15 00:32:00,
2013-05-14 20:42:00,42.0,27.0,-100.00,North,-999,-999.0,-999.0,56,-99.99,,,-99.99,,2013-05-15 00:42:00,
2013-05-14 20:52:00,41.0,27.0,-100.00,North,-999,-999.0,-999.0,57,-99.99,,,-99.99,,2013-05-15 00:52:00,
2013-05-14 21:01:00,39.0,26.0,-100.00,North,-999,-999.0,-999.0,60,-99.99,,,-99.99,,2013-05-15 01:01:00,
2013-05-14 21:22:00,38.0,27.0,-100.00,North,-999,-999.0,-999.0,63,-99.99,,,-99.99,,2013-05-15 01:22:00,
2013-05-14 21:32:00,38.0,27.0,-100.00,North,-999,-999.0,-999.0,63,-99.99,,,-99.99,,2013-05-15 01:32:00,
2013-05-14 21:42:00,38.0,27.0,-100.00,North,-999,-999.0,-999.0,63,-99.99,,,-99.99,,2013-05-15 01:42:00,
2013-05-14 21:52:00,37.0,26.0,-100.00,North,-999,-999.0,-999.0,65,-99.99,,,-99.99,,2013-05-15 01:52:00,
2013-05-14 22:02:00,37.0,27.0,-100.00,North,-999,-999.0,-999.0,67,-99.99,,,-99.99,,2013-05-15 02:02:00,
2013-05-14 22:11:00,37.0,27.0,-100.00,North,-999,-999.0,-999.0,67,-99.99,,,-99.99,,2013-05-15 02:11:00,
2013-05-14 22:22:00,36.0,26.0,-100.00,North,-999,-999.0,-999.0,68,-99.99,,,-99.99,,2013-05-15 02:22:00,
2013-05-14 22:32:00,36.0,26.0,-100.00,North,-999,-999.0,-999.0,68,-99.99,,,-99.99,,2013-05-15 02:32:00,
2013-05-14 22:42:00,36.0,26.0,-100.00,North,-999,-999.0,-999.0,68,-99.99,,,-99.99,,2013-05-15 02:42:00,
2013-05-14 22:52:00,35.0,26.0,-100.00,North,-999,-999.0,-999.0,70,-99.99,,,-99.99,,2013-05-15 02:52:00,
2013-05-14 23:01:00,35.0,26.0,-100.00,North,-999,-999.0,-999.0,70,-99.99,,,-99.99,,2013-05-15 03:01:00,
2013-05-14 23:13:00,35.0,26.0,-100.00,North,-999,-999.0,-999.0,70,-99.99,,,-99.99,,2013-05-15 03:13:00,
2013-05-14 23:22:00,34.0,26.0,-100.00,North,-999,-999.0,-999.0,71,-99.99,,,-99.99,,2013-05-15 03:22:00,
2013-05-14 23:33:00,34.0,26.0,-100.00,North,-999,-999.0,-999.0,72,-99.99,,,-99.99,,2013-05-15 03:33:00,
2013-05-14 23:44:00,34.0,26.0,-100.00,North,-999,-999.0,-999.0,72,-99.99,,,-99.99,,2013-05-15 03:44:00,
2013-05-14 23:54:00,34.0,26.0,-100.00,North,-999,-999.0,-999.0,72,-99.99,,,-99.99,,2013-05-15 03:54:00,